Time;durP1;ratioP1;P1;durP2;ratioP2;P2;SDS_P1;SDS_P2;PMS_P1;PMS_P2;Temp;Humidity;BMP_temperature;BMP_pressure;BME280_temperature;BME280_humidity;BME280_pressure;Samples;Min_cycle;Max_cycle;Signal;HPM_P1;HPM_P2
2023/05/03 00:00:43;;;;;;;9.67;9.37;;;5.70;99.90;;;;;;5149340;27;20534;-68
2023/05/03 00:03:10;;;;;;;10.00;9.70;;;5.60;99.90;;;;;;5143224;27;20452;-68
2023/05/03 00:05:38;;;;;;;10.07;9.77;;;5.50;99.90;;;;;;5149538;27;20463;-67
2023/05/03 00:08:05;;;;;;;10.20;9.87;;;5.40;99.90;;;;;;5141697;27;20450;-68
2023/05/03 00:10:32;;;;;;;9.63;9.33;;;5.30;99.90;;;;;;5149379;27;20467;-68
2023/05/03 00:13:00;;;;;;;9.80;9.50;;;5.30;99.90;;;;;;5143583;27;21038;-68
2023/05/03 00:15:28;;;;;;;9.90;9.60;;;5.20;99.90;;;;;;5151098;27;20855;-68
2023/05/03 00:17:56;;;;;;;10.20;9.80;;;5.10;99.90;;;;;;5142550;27;21137;-68
2023/05/03 00:20:23;;;;;;;9.97;9.67;;;5.10;99.90;;;;;;5150756;27;20458;-66
2023/05/03 00:22:51;;;;;;;9.97;9.67;;;5.10;99.90;;;;;;5139942;27;20471;-67
2023/05/03 00:25:20;;;;;;;9.70;9.40;;;4.90;99.90;;;;;;5143953;27;20555;-68
2023/05/03 00:27:47;;;;;;;10.70;10.30;;;4.80;99.90;;;;;;5135980;27;20913;-68
2023/05/03 00:30:17;;;;;;;10.50;10.10;;;4.70;99.90;;;;;;5142457;27;20981;-66
2023/05/03 00:32:46;;;;;;;10.73;10.33;;;4.60;99.90;;;;;;5135912;27;20534;-68
2023/05/03 00:35:12;;;;;;;10.90;10.50;;;4.50;99.90;;;;;;5146676;27;20873;-68
2023/05/03 00:37:40;;;;;;;11.20;10.80;;;4.40;99.90;;;;;;5142366;27;20485;-69
2023/05/03 00:40:09;;;;;;;10.60;10.20;;;4.40;99.90;;;;;;5141021;27;20607;-67
2023/05/03 00:42:36;;;;;;;10.23;9.83;;;4.40;99.90;;;;;;5146212;27;21008;-68
2023/05/03 00:45:04;;;;;;;10.40;10.00;;;4.30;99.90;;;;;;5141142;27;20504;-67
2023/05/03 00:47:32;;;;;;;10.30;9.90;;;4.20;99.90;;;;;;5143072;27;20457;-67
2023/05/03 00:50:01;;;;;;;10.60;10.20;;;4.10;99.90;;;;;;5136957;27;20472;-69
2023/05/03 00:52:30;;;;;;;10.97;10.57;;;4.00;99.90;;;;;;5149802;27;20555;-68
2023/05/03 00:54:58;;;;;;;10.67;10.27;;;4.00;99.90;;;;;;5136323;27;21055;-67
2023/05/03 00:57:26;;;;;;;10.07;9.77;;;3.90;99.90;;;;;;5144577;27;20956;-67
2023/05/03 00:59:53;;;;;;;10.37;9.97;;;3.90;99.90;;;;;;5138850;27;20818;-69
2023/05/03 01:02:21;;;;;;;10.60;10.20;;;3.70;99.90;;;;;;5138368;27;20459;-69
2023/05/03 01:04:48;;;;;;;9.97;9.67;;;3.60;99.90;;;;;;5148177;27;20467;-68
2023/05/03 01:07:28;;;;;;;9.90;9.60;;;3.50;99.90;;;;;;5140791;27;20456;-68
2023/05/03 01:10:03;;;;;;;10.17;9.80;;;3.40;99.90;;;;;;5131788;27;20733;-68
2023/05/03 01:12:40;;;;;;;9.33;9.03;;;3.40;99.90;;;;;;5146851;27;20589;-68
2023/05/03 01:15:12;;;;;;;9.50;9.20;;;3.30;99.90;;;;;;5148960;27;20858;-69
2023/05/03 01:17:42;;;;;;;9.00;8.70;;;3.30;99.90;;;;;;5138841;27;21147;-69
2023/05/03 01:20:13;;;;;;;9.63;9.33;;;3.20;99.90;;;;;;5149618;27;20538;-67
2023/05/03 01:22:47;;;;;;;8.80;8.50;;;3.10;99.90;;;;;;5149887;27;20463;-69
2023/05/03 01:25:16;;;;;;;9.27;8.97;;;3.10;99.90;;;;;;5136802;27;21009;-68
2023/05/03 01:27:43;;;;;;;9.27;8.97;;;3.20;99.90;;;;;;5135053;27;20463;-67
2023/05/03 01:30:12;;;;;;;10.93;10.43;;;3.10;99.90;;;;;;5139015;27;20848;-68
2023/05/03 01:32:49;;;;;;;8.93;8.63;;;3.10;99.90;;;;;;5147851;27;20478;-68
2023/05/03 01:35:23;;;;;;;8.70;8.40;;;3.00;99.90;;;;;;5137342;27;20459;-68
2023/05/03 01:37:51;;;;;;;9.20;8.90;;;3.00;99.90;;;;;;5145068;27;20478;-68
2023/05/03 01:40:21;;;;;;;8.90;8.60;;;2.90;99.90;;;;;;5148039;27;20511;-68
2023/05/03 01:42:50;;;;;;;8.73;8.43;;;2.80;99.90;;;;;;5139171;27;20462;-68
2023/05/03 01:45:17;;;;;;;8.90;8.60;;;2.70;99.90;;;;;;5139977;27;20462;-68
2023/05/03 01:47:44;;;;;;;8.27;7.97;;;2.70;99.90;;;;;;5149590;27;20474;-68
2023/05/03 01:50:11;;;;;;;8.73;8.43;;;2.70;99.90;;;;;;5132459;27;20521;-68
2023/05/03 01:52:38;;;;;;;8.93;8.63;;;2.60;99.90;;;;;;5146230;27;20515;-68
2023/05/03 01:55:07;;;;;;;9.10;8.80;;;2.70;99.90;;;;;;5143412;27;20460;-68
2023/05/03 01:57:35;;;;;;;8.40;8.10;;;2.70;99.90;;;;;;5142184;27;20507;-68
2023/05/03 02:00:03;;;;;;;9.43;9.13;;;2.60;99.90;;;;;;5132099;27;20568;-67
2023/05/03 02:02:30;;;;;;;8.70;8.40;;;2.60;99.90;;;;;;5135538;27;20508;-68
2023/05/03 02:04:58;;;;;;;9.30;9.00;;;2.60;99.90;;;;;;5149522;27;20466;-68
2023/05/03 02:07:24;;;;;;;9.20;8.90;;;2.60;99.90;;;;;;5140004;27;20463;-68
2023/05/03 02:09:52;;;;;;;8.80;8.50;;;2.60;99.90;;;;;;5141710;27;20459;-67
2023/05/03 02:12:20;;;;;;;8.67;8.37;;;2.50;99.90;;;;;;5146259;27;20486;-68
2023/05/03 02:14:50;;;;;;;9.20;8.90;;;2.50;99.90;;;;;;5146441;27;20800;-68
2023/05/03 02:17:18;;;;;;;8.67;8.37;;;2.40;99.90;;;;;;5139075;27;20564;-68
2023/05/03 02:19:44;;;;;;;8.80;8.50;;;2.30;99.90;;;;;;5153444;27;20451;-68
2023/05/03 02:22:12;;;;;;;9.57;9.27;;;2.30;99.90;;;;;;5143457;27;20515;-68
2023/05/03 02:24:40;;;;;;;9.17;8.87;;;2.30;99.90;;;;;;5147645;27;20867;-68
2023/05/03 02:27:07;;;;;;;9.07;8.77;;;2.20;99.90;;;;;;5145048;27;20515;-67
2023/05/03 02:29:34;;;;;;;8.87;8.57;;;2.30;99.90;;;;;;5146032;27;21001;-68
2023/05/03 02:32:04;;;;;;;9.00;8.70;;;2.20;99.90;;;;;;5145380;27;20956;-68
2023/05/03 02:34:31;;;;;;;9.90;9.60;;;2.20;99.90;;;;;;5150220;27;20818;-68
2023/05/03 02:36:58;;;;;;;9.60;9.30;;;2.10;99.90;;;;;;5146862;27;20459;-68
2023/05/03 02:39:24;;;;;;;10.00;9.70;;;2.10;99.90;;;;;;5152831;27;20803;-68
2023/05/03 02:41:51;;;;;;;10.70;10.30;;;2.20;99.90;;;;;;5141671;27;20500;-68
2023/05/03 02:44:18;;;;;;;9.37;9.07;;;2.20;99.90;;;;;;5147268;27;20499;-68
2023/05/03 02:46:45;;;;;;;10.13;9.80;;;2.20;99.90;;;;;;5143065;27;20455;-68
2023/05/03 02:49:13;;;;;;;10.03;9.73;;;2.20;99.90;;;;;;5149155;27;20512;-68
2023/05/03 02:51:40;;;;;;;10.20;9.83;;;2.20;99.90;;;;;;5141392;27;20996;-67
2023/05/03 02:54:07;;;;;;;9.90;9.60;;;2.20;99.90;;;;;;5146053;27;20872;-68
2023/05/03 02:56:33;;;;;;;9.53;9.23;;;2.20;99.90;;;;;;5142402;27;20862;-68
2023/05/03 02:59:00;;;;;;;9.53;9.23;;;2.20;99.90;;;;;;5150693;27;20782;-68
2023/05/03 03:01:28;;;;;;;9.67;9.37;;;2.40;99.90;;;;;;5151557;27;20463;-68
2023/05/03 03:03:55;;;;;;;10.30;9.90;;;2.40;99.90;;;;;;5143091;27;20459;-68
2023/05/03 03:06:24;;;;;;;9.37;9.07;;;2.60;99.90;;;;;;5140935;27;20464;-68
2023/05/03 03:08:52;;;;;;;9.60;9.30;;;2.80;99.90;;;;;;5134284;27;20803;-68
2023/05/03 03:11:19;;;;;;;9.80;9.50;;;3.00;99.90;;;;;;5145888;27;20460;-68
2023/05/03 03:13:46;;;;;;;9.93;9.63;;;3.10;99.90;;;;;;5144171;27;20483;-68
2023/05/03 03:16:13;;;;;;;11.23;10.83;;;3.20;99.90;;;;;;5156878;27;20747;-67
2023/05/03 03:18:40;;;;;;;10.17;9.87;;;3.20;99.90;;;;;;5150032;27;20487;-68
2023/05/03 03:21:07;;;;;;;10.93;10.53;;;3.30;99.90;;;;;;5150313;27;20455;-68
2023/05/03 03:23:36;;;;;;;9.73;9.43;;;3.30;99.90;;;;;;5143359;27;20471;-67
2023/05/03 03:26:03;;;;;;;10.30;9.90;;;3.40;99.90;;;;;;5135648;27;20495;-68
2023/05/03 03:28:30;;;;;;;10.07;9.77;;;3.30;99.90;;;;;;5148217;27;20542;-68
2023/05/03 03:30:57;;;;;;;12.40;11.83;;;3.40;99.90;;;;;;5144031;27;20581;-68
2023/05/03 03:33:24;;;;;;;10.27;9.90;;;3.50;99.90;;;;;;5146013;27;20487;-67
2023/05/03 03:35:51;;;;;;;10.97;10.57;;;3.60;99.90;;;;;;5144243;27;20544;-68
2023/05/03 03:38:19;;;;;;;10.87;10.47;;;3.60;99.90;;;;;;5142598;27;20467;-68
2023/05/03 03:40:48;;;;;;;12.10;11.60;;;3.50;99.90;;;;;;5139778;27;20855;-68
2023/05/03 03:43:15;;;;;;;11.10;10.70;;;3.40;99.90;;;;;;5146356;27;20476;-68
2023/05/03 03:45:42;;;;;;;11.20;10.80;;;3.40;99.90;;;;;;5148179;27;20451;-68
2023/05/03 03:48:10;;;;;;;10.83;10.43;;;3.30;99.90;;;;;;5145618;27;20460;-68
2023/05/03 03:50:38;;;;;;;12.63;12.13;;;3.30;99.90;;;;;;5145455;27;22273;-69
2023/05/03 03:53:08;;;;;;;12.23;11.73;;;3.20;99.90;;;;;;5139276;27;21298;-67
2023/05/03 03:55:34;;;;;;;10.80;10.40;;;3.20;99.90;;;;;;5150004;27;20455;-67
2023/05/03 03:58:02;;;;;;;10.80;10.40;;;3.10;99.90;;;;;;5139719;27;20505;-67
2023/05/03 04:00:29;;;;;;;11.37;10.97;;;3.10;99.90;;;;;;5147147;27;20818;-67
2023/05/03 04:02:57;;;;;;;11.13;10.73;;;3.00;99.90;;;;;;5143195;27;20459;-67
2023/05/03 04:05:24;;;;;;;11.37;10.97;;;3.00;99.90;;;;;;5150340;27;20503;-68
2023/05/03 04:07:51;;;;;;;11.37;10.97;;;2.90;99.90;;;;;;5134781;27;20467;-67
2023/05/03 04:10:18;;;;;;;11.30;10.90;;;2.80;99.90;;;;;;5139755;27;20459;-68
2023/05/03 04:12:45;;;;;;;11.13;10.73;;;2.80;99.90;;;;;;5146051;27;20472;-68
2023/05/03 04:15:14;;;;;;;10.90;10.50;;;2.90;99.90;;;;;;5138508;27;20456;-68
2023/05/03 04:17:41;;;;;;;11.10;10.70;;;2.90;99.90;;;;;;5147798;27;20482;-69
2023/05/03 04:20:09;;;;;;;11.17;10.77;;;2.90;99.90;;;;;;5145723;27;20448;-68
2023/05/03 04:22:38;;;;;;;10.90;10.50;;;2.80;99.90;;;;;;5143328;27;20459;-68
2023/05/03 04:25:08;;;;;;;10.60;10.20;;;2.80;99.90;;;;;;5146349;27;20466;-68
2023/05/03 04:27:37;;;;;;;10.90;10.50;;;2.80;99.90;;;;;;5139604;27;20452;-67
2023/05/03 04:30:05;;;;;;;10.93;10.53;;;2.70;99.90;;;;;;5141755;27;20475;-68
2023/05/03 04:32:36;;;;;;;11.20;10.80;;;2.70;99.90;;;;;;5145320;27;20473;-67
2023/05/03 04:35:07;;;;;;;11.07;10.67;;;2.60;99.90;;;;;;5146679;27;20483;-68
2023/05/03 04:37:35;;;;;;;10.70;10.30;;;2.60;99.90;;;;;;5140913;27;20730;-67
2023/05/03 04:40:06;;;;;;;10.27;9.87;;;2.60;99.90;;;;;;5143806;27;20826;-68
2023/05/03 04:42:33;;;;;;;11.00;10.60;;;2.60;99.90;;;;;;5139797;27;20547;-68
2023/05/03 04:45:01;;;;;;;10.73;10.33;;;2.80;99.90;;;;;;5141384;27;20463;-68
2023/05/03 04:47:29;;;;;;;11.03;10.63;;;2.80;99.90;;;;;;5139007;27;20460;-68
2023/05/03 04:49:58;;;;;;;11.10;10.70;;;2.90;99.90;;;;;;5143096;27;20463;-68
2023/05/03 04:52:26;;;;;;;11.07;10.67;;;2.90;99.90;;;;;;5142968;27;20467;-68
2023/05/03 04:54:53;;;;;;;11.23;10.83;;;2.90;99.90;;;;;;5144629;27;20583;-68
2023/05/03 04:57:20;;;;;;;11.13;10.73;;;3.00;99.90;;;;;;5134878;27;21016;-68
2023/05/03 04:59:49;;;;;;;11.10;10.70;;;3.00;99.90;;;;;;5147939;27;20929;-68
2023/05/03 05:02:16;;;;;;;10.60;10.20;;;3.10;99.90;;;;;;5148258;27;20456;-68
2023/05/03 05:04:43;;;;;;;10.40;10.00;;;3.20;99.90;;;;;;5135883;27;20459;-68
2023/05/03 05:07:12;;;;;;;10.90;10.50;;;3.20;99.90;;;;;;5140782;27;20460;-69
2023/05/03 05:09:41;;;;;;;10.67;10.27;;;3.40;99.90;;;;;;5141022;27;20824;-68
2023/05/03 05:12:08;;;;;;;10.80;10.40;;;3.60;99.90;;;;;;5133844;27;20487;-68
2023/05/03 05:14:35;;;;;;;11.50;11.10;;;3.70;99.90;;;;;;5147197;27;20490;-68
2023/05/03 05:17:02;;;;;;;11.03;10.63;;;3.80;99.90;;;;;;5133237;27;20472;-68
2023/05/03 05:19:28;;;;;;;11.30;10.90;;;3.80;99.90;;;;;;5146045;27;20949;-68
2023/05/03 05:21:56;;;;;;;12.43;11.93;;;3.90;99.90;;;;;;5135528;27;20464;-67
2023/05/03 05:24:25;;;;;;;11.37;10.97;;;4.00;99.90;;;;;;5148565;27;20467;-67
2023/05/03 05:26:52;;;;;;;11.90;11.50;;;4.00;99.90;;;;;;5132166;27;20824;-67
2023/05/03 05:29:19;;;;;;;12.00;11.60;;;4.20;99.90;;;;;;5140623;27;20464;-67
2023/05/03 05:31:46;;;;;;;11.27;10.87;;;4.30;99.90;;;;;;5143385;27;20461;-67
2023/05/03 05:34:15;;;;;;;12.90;12.40;;;4.40;99.90;;;;;;5145412;27;20491;-67
2023/05/03 05:36:42;;;;;;;12.10;11.60;;;4.50;99.90;;;;;;5135759;27;20456;-68
2023/05/03 05:39:10;;;;;;;11.43;11.03;;;4.60;99.90;;;;;;5146411;27;20466;-69
2023/05/03 05:41:39;;;;;;;11.40;11.00;;;4.70;99.90;;;;;;5148854;27;20455;-68
2023/05/03 05:44:07;;;;;;;12.17;11.67;;;4.80;99.90;;;;;;5134624;27;20457;-68
2023/05/03 05:46:34;;;;;;;11.80;11.40;;;5.00;99.90;;;;;;5148260;27;20469;-68
2023/05/03 05:49:01;;;;;;;11.40;11.00;;;5.10;99.90;;;;;;5143718;27;20455;-68
2023/05/03 05:51:29;;;;;;;12.63;12.10;;;5.10;99.90;;;;;;5137339;27;20465;-68
2023/05/03 05:53:56;;;;;;;12.83;12.33;;;5.30;99.90;;;;;;5131852;27;20565;-69
2023/05/03 05:56:23;;;;;;;11.97;11.50;;;5.40;99.90;;;;;;5131401;27;20949;-68
2023/05/03 05:58:51;;;;;;;13.17;12.67;;;5.50;99.90;;;;;;5143067;27;20464;-68
2023/05/03 06:01:18;;;;;;;13.17;12.67;;;5.60;99.90;;;;;;5130819;27;20478;-69
2023/05/03 06:03:46;;;;;;;13.07;12.57;;;5.80;99.90;;;;;;5128310;27;20505;-69
2023/05/03 06:06:13;;;;;;;15.07;14.33;;;5.90;99.90;;;;;;5144641;27;20462;-68
2023/05/03 06:08:40;;;;;;;13.90;13.30;;;6.00;99.90;;;;;;5138579;27;20464;-69
2023/05/03 06:11:07;;;;;;;13.57;12.97;;;6.10;99.90;;;;;;5141350;27;20471;-68
2023/05/03 06:13:37;;;;;;;13.20;12.70;;;6.30;99.90;;;;;;5139535;27;21232;-68
2023/05/03 06:16:06;;;;;;;12.90;12.40;;;6.30;99.90;;;;;;5147337;27;20457;-68
2023/05/03 06:18:33;;;;;;;14.87;14.10;;;6.40;99.90;;;;;;5135194;27;20539;-68
2023/05/03 06:21:00;;;;;;;13.07;12.57;;;6.60;99.90;;;;;;5134938;27;20465;-68
2023/05/03 06:23:27;;;;;;;13.60;13.00;;;6.80;99.90;;;;;;5132007;27;20560;-68
2023/05/03 06:25:55;;;;;;;12.87;12.37;;;7.00;99.90;;;;;;5135638;27;20612;-69
2023/05/03 06:28:21;;;;;;;13.80;13.10;;;7.20;99.90;;;;;;5148134;27;20467;-68
2023/05/03 06:30:49;;;;;;;14.93;14.10;;;7.30;99.90;;;;;;5139540;27;20463;-69
2023/05/03 06:33:17;;;;;;;13.10;12.60;;;7.40;99.90;;;;;;5142175;27;20460;-68
2023/05/03 06:35:46;;;;;;;12.43;11.93;;;7.60;99.90;;;;;;5128301;27;20492;-69
2023/05/03 06:38:13;;;;;;;13.27;12.77;;;7.70;99.90;;;;;;5134986;27;20526;-68
2023/05/03 06:40:41;;;;;;;13.60;13.00;;;7.80;99.90;;;;;;5138745;27;20460;-68
2023/05/03 06:43:07;;;;;;;14.60;14.00;;;7.80;99.90;;;;;;5140048;27;20537;-69
2023/05/03 06:45:34;;;;;;;15.63;14.77;;;8.00;99.90;;;;;;5144632;27;20460;-68
2023/05/03 06:48:01;;;;;;;14.07;13.47;;;8.20;99.90;;;;;;5132801;27;20462;-68
2023/05/03 06:50:30;;;;;;;14.97;14.27;;;8.30;99.90;;;;;;5143079;27;20523;-69
2023/05/03 06:52:56;;;;;;;14.53;13.83;;;8.60;99.90;;;;;;5145352;27;20559;-68
2023/05/03 06:55:24;;;;;;;15.50;14.80;;;8.70;99.90;;;;;;5149463;27;20494;-68
2023/05/03 06:57:52;;;;;;;14.47;13.87;;;8.80;99.90;;;;;;5144285;27;20558;-69
2023/05/03 07:00:22;;;;;;;16.80;15.80;;;9.10;99.90;;;;;;5148391;27;20538;-68
2023/05/03 07:02:50;;;;;;;15.03;14.33;;;9.30;99.90;;;;;;5139192;27;20463;-69
2023/05/03 07:05:16;;;;;;;15.20;14.50;;;9.30;99.90;;;;;;5147516;27;21048;-68
2023/05/03 07:07:45;;;;;;;15.93;15.13;;;9.40;99.90;;;;;;5144485;27;20463;-68
2023/05/03 07:10:12;;;;;;;17.70;16.70;;;9.20;99.90;;;;;;5136851;27;20559;-68
2023/05/03 07:12:39;;;;;;;14.43;13.83;;;9.50;99.90;;;;;;5135793;27;20533;-67
2023/05/03 07:15:07;;;;;;;15.20;14.50;;;9.70;99.90;;;;;;5133330;27;20518;-67
2023/05/03 07:17:34;;;;;;;16.00;15.13;;;10.00;99.90;;;;;;5135800;27;20505;-69
2023/05/03 07:20:03;;;;;;;14.97;14.37;;;10.30;99.90;;;;;;5140334;27;20461;-69
2023/05/03 07:22:30;;;;;;;15.47;14.57;;;10.30;99.90;;;;;;5141145;27;20893;-68
2023/05/03 07:24:59;;;;;;;17.83;17.03;;;10.40;99.90;;;;;;5144620;27;20460;-68
2023/05/03 07:27:26;;;;;;;14.97;14.37;;;10.40;99.90;;;;;;5137094;27;20459;-68
2023/05/03 07:29:53;;;;;;;15.80;15.10;;;10.50;99.90;;;;;;5135879;27;20481;-67
2023/05/03 07:32:21;;;;;;;17.07;16.00;;;10.70;99.90;;;;;;5140688;27;21832;-67
2023/05/03 07:34:48;;;;;;;16.97;16.07;;;10.90;99.90;;;;;;5143951;27;20575;-66
2023/05/03 07:37:15;;;;;;;15.43;14.67;;;10.80;99.90;;;;;;5139264;27;21008;-66
2023/05/03 07:39:42;;;;;;;15.70;14.60;;;10.70;99.90;;;;;;5149101;27;20462;-67
2023/05/03 07:42:10;;;;;;;15.43;14.83;;;11.00;99.90;;;;;;5145259;27;20587;-66
2023/05/03 07:44:38;;;;;;;16.70;15.73;;;11.20;99.90;;;;;;5143214;27;20830;-67
2023/05/03 07:47:06;;;;;;;17.13;16.23;;;11.30;99.90;;;;;;5136311;27;20912;-66
2023/05/03 07:49:35;;;;;;;16.90;16.00;;;11.20;99.90;;;;;;5138674;27;20455;-66
2023/05/03 07:52:02;;;;;;;17.87;16.87;;;11.00;99.90;;;;;;5137569;27;20883;-67
2023/05/03 07:54:29;;;;;;;16.60;15.70;;;11.10;99.90;;;;;;5148501;27;20576;-67
2023/05/03 07:56:56;;;;;;;16.77;15.90;;;11.30;99.90;;;;;;5143723;27;20466;-67
2023/05/03 07:59:24;;;;;;;16.53;15.73;;;11.40;99.90;;;;;;5138491;27;20495;-66
2023/05/03 08:01:51;;;;;;;15.27;14.57;;;11.70;99.90;;;;;;5143620;27;20451;-66
2023/05/03 08:04:20;;;;;;;16.20;15.47;;;11.60;99.90;;;;;;5144750;27;20463;-67
2023/05/03 08:06:46;;;;;;;15.97;15.27;;;11.80;99.90;;;;;;5149760;27;20456;-67
2023/05/03 08:09:14;;;;;;;15.00;14.40;;;11.80;99.90;;;;;;5136354;27;20515;-67
2023/05/03 08:11:41;;;;;;;15.10;14.50;;;12.10;99.90;;;;;;5139249;27;20480;-67
2023/05/03 08:14:07;;;;;;;16.73;15.83;;;12.40;99.90;;;;;;5137146;27;20464;-67
2023/05/03 08:16:35;;;;;;;15.40;14.70;;;12.60;99.90;;;;;;5142263;27;20479;-67
2023/05/03 08:19:03;;;;;;;14.87;14.27;;;12.90;99.90;;;;;;5137569;27;20463;-67
2023/05/03 08:21:30;;;;;;;15.60;14.90;;;13.00;99.90;;;;;;5136555;27;20949;-69
2023/05/03 08:23:56;;;;;;;17.60;16.07;;;13.00;99.90;;;;;;5136262;27;21224;-67
2023/05/03 08:26:26;;;;;;;15.70;14.90;;;13.10;99.90;;;;;;5144045;27;20512;-67
2023/05/03 08:28:55;;;;;;;16.33;15.53;;;13.10;99.90;;;;;;5134119;27;20972;-66
2023/05/03 08:31:22;;;;;;;15.23;14.63;;;13.00;99.90;;;;;;5138294;27;20449;-67
2023/05/03 08:33:51;;;;;;;15.50;14.80;;;13.40;99.90;;;;;;5139795;27;20452;-66
2023/05/03 08:36:18;;;;;;;15.00;14.40;;;13.90;99.90;;;;;;5141503;27;20497;-68
2023/05/03 08:38:45;;;;;;;15.13;14.53;;;14.70;99.90;;;;;;5139508;27;20980;-67
2023/05/03 08:41:20;;;;;;;15.40;14.70;;;15.50;99.90;;;;;;5144385;27;20466;-67
2023/05/03 08:43:52;;;;;;;14.73;14.13;;;15.70;99.90;;;;;;5147834;27;20459;-67
2023/05/03 08:46:19;;;;;;;16.80;15.70;;;16.10;99.90;;;;;;5139499;27;20461;-68
2023/05/03 08:48:49;;;;;;;15.03;14.43;;;16.50;99.90;;;;;;5144155;27;20459;-67
2023/05/03 08:51:20;;;;;;;15.77;15.07;;;16.60;98.50;;;;;;5139072;27;20463;-68
2023/05/03 08:53:47;;;;;;;15.00;14.40;;;17.30;99.40;;;;;;5133015;27;20547;-66
2023/05/03 08:56:24;;;;;;;15.90;15.20;;;17.40;98.40;;;;;;5143667;27;21013;-68
2023/05/03 08:58:52;;;;;;;15.20;14.60;;;17.50;97.30;;;;;;5140040;27;20463;-67
2023/05/03 09:01:19;;;;;;;15.30;14.70;;;18.20;96.40;;;;;;5145099;27;20964;-67
2023/05/03 09:03:51;;;;;;;15.23;14.63;;;17.40;94.20;;;;;;5133749;27;20459;-68
2023/05/03 09:06:25;;;;;;;17.13;16.33;;;17.50;95.20;;;;;;5138766;27;20460;-67
2023/05/03 09:08:52;;;;;;;17.97;16.97;;;16.80;95.00;;;;;;5137351;27;20468;-68
2023/05/03 09:11:23;;;;;;;15.23;14.60;;;16.90;94.40;;;;;;5131692;27;20463;-67
2023/05/03 09:13:51;;;;;;;16.93;15.77;;;16.90;97.20;;;;;;5138227;27;20447;-65
2023/05/03 09:16:26;;;;;;;16.80;15.90;;;18.00;95.10;;;;;;5136945;27;20927;-67
2023/05/03 09:19:00;;;;;;;15.53;14.83;;;17.70;92.90;;;;;;5136354;27;20446;-66
2023/05/03 09:21:31;;;;;;;15.00;14.40;;;17.70;94.80;;;;;;5127840;27;20462;-68
2023/05/03 09:23:58;;;;;;;15.80;15.10;;;18.60;94.30;;;;;;5139263;27;20468;-67
2023/05/03 09:26:32;;;;;;;16.10;15.40;;;19.40;92.70;;;;;;5135978;27;20683;-67
2023/05/03 09:29:01;;;;;;;16.43;15.63;;;19.50;90.50;;;;;;5139956;27;20455;-66
2023/05/03 09:31:29;;;;;;;15.87;15.17;;;19.50;87.90;;;;;;5138336;27;20459;-67
2023/05/03 09:33:57;;;;;;;16.23;15.53;;;19.70;89.80;;;;;;5133406;27;21160;-68
2023/05/03 09:36:26;;;;;;;15.60;14.93;;;20.10;86.40;;;;;;5131591;27;20489;-67
2023/05/03 09:38:55;;;;;;;15.27;14.67;;;20.70;82.50;;;;;;5129712;27;20451;-67
2023/05/03 09:41:28;;;;;;;16.13;15.43;;;20.50;81.60;;;;;;5138509;27;20455;-67
2023/05/03 09:43:55;;;;;;;15.50;14.80;;;20.50;79.20;;;;;;5137246;27;20456;-68
2023/05/03 09:46:24;;;;;;;16.00;15.30;;;19.90;79.40;;;;;;5134296;27;20474;-66
2023/05/03 09:48:55;;;;;;;16.10;15.40;;;20.40;79.20;;;;;;5136788;27;20468;-67
2023/05/03 09:51:23;;;;;;;16.07;15.37;;;20.80;79.20;;;;;;5134197;27;20456;-67
2023/05/03 09:53:50;;;;;;;16.20;15.40;;;21.30;80.50;;;;;;5137537;27;20461;-67
2023/05/03 09:56:25;;;;;;;15.97;15.27;;;22.00;73.90;;;;;;5137876;27;20490;-67
2023/05/03 09:58:52;;;;;;;16.83;16.00;;;20.30;74.50;;;;;;5136485;27;20509;-67
2023/05/03 10:01:21;;;;;;;15.63;14.93;;;20.80;73.60;;;;;;5139747;27;20459;-67
2023/05/03 10:03:50;;;;;;;15.77;14.70;;;20.50;71.30;;;;;;5134497;27;20776;-67
2023/05/03 10:06:22;;;;;;;15.20;14.60;;;20.80;72.60;;;;;;5134959;27;20547;-66
2023/05/03 10:08:53;;;;;;;15.63;14.93;;;21.40;72.80;;;;;;5134613;27;20820;-67
2023/05/03 10:11:26;;;;;;;15.10;14.50;;;22.00;70.30;;;;;;5142028;27;20449;-68
2023/05/03 10:13:53;;;;;;;14.67;14.07;;;22.20;72.10;;;;;;5140972;27;20455;-67
2023/05/03 10:16:24;;;;;;;15.00;14.40;;;22.30;69.70;;;;;;5144915;27;20497;-68
2023/05/03 10:18:56;;;;;;;16.07;15.37;;;22.20;67.70;;;;;;5142973;27;20455;-67
2023/05/03 10:21:33;;;;;;;14.73;14.13;;;22.70;66.70;;;;;;5140383;27;20456;-67
2023/05/03 10:24:14;;;;;;;14.80;14.20;;;22.10;63.30;;;;;;5132935;27;20463;-68
2023/05/03 10:26:44;;;;;;;17.00;16.10;;;22.60;64.30;;;;;;5137345;27;20448;-67
2023/05/03 10:29:50;;;;;;;15.53;14.83;;;21.10;61.00;;;;;;5140742;27;20455;-68
2023/05/03 10:32:45;;;;;;;16.40;15.60;;;20.60;63.00;;;;;;5148209;27;21001;-67
2023/05/03 10:35:15;;;;;;;14.60;14.00;;;20.90;64.70;;;;;;5093026;27;20809;-66
2023/05/03 10:37:44;;;;;;;15.10;14.40;;;21.30;63.80;;;;;;5147670;27;20461;-67
2023/05/03 10:40:13;;;;;;;14.83;14.23;;;20.60;65.10;;;;;;5146895;27;20463;-67
2023/05/03 10:42:45;;;;;;;14.83;14.23;;;19.80;65.30;;;;;;5143125;27;20447;-66
2023/05/03 10:45:22;;;;;;;15.27;14.60;;;20.00;64.60;;;;;;5137794;27;20467;-67
2023/05/03 10:48:19;;;;;;;14.80;14.20;;;19.90;64.20;;;;;;5141276;27;20824;-66
2023/05/03 10:50:47;;;;;;;14.70;14.10;;;20.70;64.40;;;;;;5136136;27;20488;-67
2023/05/03 10:53:38;;;;;;;14.20;13.60;;;21.10;61.90;;;;;;5150957;27;21017;-67
2023/05/03 10:56:07;;;;;;;14.20;13.60;;;21.30;64.40;;;;;;5144815;27;20518;-67
2023/05/03 10:58:38;;;;;;;13.70;13.20;;;21.40;63.20;;;;;;5139743;27;20456;-67
2023/05/03 11:01:05;;;;;;;13.57;13.07;;;21.70;65.00;;;;;;5139292;27;20444;-67
2023/05/03 11:03:45;;;;;;;14.53;13.63;;;22.60;64.10;;;;;;5136850;27;20455;-67
2023/05/03 11:06:27;;;;;;;14.80;14.10;;;23.30;59.20;;;;;;5141649;27;20460;-67
2023/05/03 11:08:54;;;;;;;17.33;16.10;;;23.30;58.10;;;;;;5139325;27;20459;-67
2023/05/03 11:11:21;;;;;;;14.10;13.50;;;23.40;57.70;;;;;;5142928;27;20555;-68
2023/05/03 11:13:50;;;;;;;15.60;14.80;;;23.70;58.90;;;;;;5142282;27;20516;-67
2023/05/03 11:16:17;;;;;;;14.43;13.80;;;23.80;55.70;;;;;;5137141;27;20495;-68
2023/05/03 11:18:44;;;;;;;14.40;13.80;;;22.80;57.80;;;;;;5142436;27;20500;-68
2023/05/03 11:21:12;;;;;;;13.50;13.00;;;23.50;57.20;;;;;;5142944;27;20455;-67
2023/05/03 11:23:41;;;;;;;15.90;15.20;;;23.20;58.10;;;;;;5136550;27;20482;-67
2023/05/03 11:26:08;;;;;;;14.50;13.80;;;23.30;56.70;;;;;;5146954;27;20456;-67
2023/05/03 11:28:37;;;;;;;13.70;13.20;;;23.20;56.90;;;;;;5147120;27;20751;-67
2023/05/03 11:31:06;;;;;;;14.13;13.53;;;23.70;56.30;;;;;;5148984;27;20457;-67
2023/05/03 11:33:34;;;;;;;15.60;14.90;;;23.50;56.80;;;;;;5137373;27;20527;-67
2023/05/03 11:36:03;;;;;;;15.33;14.63;;;23.40;57.60;;;;;;5140215;27;20517;-67
2023/05/03 11:38:31;;;;;;;15.13;14.40;;;23.30;56.50;;;;;;5148840;27;20609;-67
2023/05/03 11:40:58;;;;;;;14.37;13.77;;;23.30;56.10;;;;;;5138517;27;20464;-68
2023/05/03 11:43:26;;;;;;;14.40;13.80;;;23.10;56.20;;;;;;5145897;27;20463;-67
2023/05/03 11:45:57;;;;;;;14.30;13.70;;;23.90;55.80;;;;;;5139821;27;20462;-67
2023/05/03 11:48:26;;;;;;;14.40;13.80;;;24.30;55.60;;;;;;5149337;27;20451;-68
2023/05/03 11:50:54;;;;;;;14.10;13.50;;;25.00;55.00;;;;;;5135918;27;20459;-68
2023/05/03 11:53:22;;;;;;;16.17;15.37;;;25.80;54.90;;;;;;5141249;27;20538;-68
2023/05/03 11:55:52;;;;;;;14.70;14.10;;;25.80;51.90;;;;;;5147368;27;20990;-68
2023/05/03 11:58:22;;;;;;;14.87;14.27;;;25.30;53.00;;;;;;5149586;27;20455;-68
2023/05/03 12:00:50;;;;;;;15.30;14.63;;;25.90;52.10;;;;;;5135779;27;20499;-68
2023/05/03 12:03:18;;;;;;;15.50;14.80;;;24.90;50.70;;;;;;5139276;27;20548;-68
2023/05/03 12:05:49;;;;;;;14.93;14.33;;;25.00;54.40;;;;;;5141843;27;20550;-68
2023/05/03 12:08:17;;;;;;;14.23;13.63;;;26.00;53.70;;;;;;5145211;27;20444;-68
2023/05/03 12:10:44;;;;;;;15.30;14.60;;;25.60;52.30;;;;;;5145685;27;20448;-68
2023/05/03 12:13:11;;;;;;;15.40;14.70;;;26.50;51.10;;;;;;5145510;27;20472;-68
2023/05/03 12:15:42;;;;;;;14.60;14.00;;;26.10;50.70;;;;;;5140428;27;20553;-68
2023/05/03 12:18:10;;;;;;;14.80;14.10;;;25.60;50.70;;;;;;5137611;27;20541;-68
2023/05/03 12:20:39;;;;;;;13.93;13.40;;;25.40;51.70;;;;;;5149525;27;20491;-69
2023/05/03 12:23:08;;;;;;;13.30;12.80;;;25.70;51.80;;;;;;5142924;27;20447;-68
2023/05/03 12:25:36;;;;;;;14.67;14.07;;;26.00;51.20;;;;;;5141587;27;20464;-68
2023/05/03 12:28:05;;;;;;;14.93;14.33;;;26.70;50.40;;;;;;5144111;27;20459;-68
2023/05/03 12:30:32;;;;;;;13.90;13.30;;;27.10;49.90;;;;;;5135784;27;20470;-68
2023/05/03 12:33:00;;;;;;;16.10;15.17;;;25.70;50.30;;;;;;5131492;27;20490;-67
2023/05/03 12:35:27;;;;;;;14.93;14.30;;;26.00;49.90;;;;;;5136668;27;20475;-68
2023/05/03 12:37:53;;;;;;;15.13;14.10;;;26.00;49.10;;;;;;5146055;27;20456;-68
2023/05/03 12:40:26;;;;;;;14.50;13.90;;;26.20;48.90;;;;;;5143258;27;20556;-68
2023/05/03 12:42:54;;;;;;;14.03;13.43;;;26.10;48.90;;;;;;5134564;27;20456;-69